Shaw Air Force Base
KSSC : now visible

Airfield :











YOU CAN JOIN US ON...

 
LOGIN :

Register | Disclaimer

   EN    FR    IT 

 









Legend :    VFR   Marginal VFR   IFR   Intensive IFR   Very Intensive IFR
Visi :
Ceiling :
>= 8 km
>= 3000ft
5 to 8 km
1000 to 3000 ft
1500m to 5 km
500 to 1000 ft
800 to 1500m
200 to 500 ft
< 800m
< 200 ft
Symbols :   Thunderstorms  Fog  Heavy snow  Heavy precipitations  Wind > 20 kt






- Airport Elevation : 241 ft


KSSC - Shaw Air Force Base

CURRENT METAR :
  • 280455Z AUTO 22008KT 10SM CLR 25/21 A2989 RMK AO2 SLP121 T02540210 403290237 $

EXPIRED METARs :
  • 280355Z AUTO 23008KT 10SM CLR 26/21 A2989 RMK AO2 SLP121 T02550205 $
  • 280255Z AUTO 22008KT 10SM CLR 27/20 A2990 RMK AO2 SLP124 T02650201 52018 $
  • 280155Z AUTO 21007KT 10SM CLR 26/20 A2987 RMK AO2 SLP114 T02610195 $
  • 280055Z AUTO 25007KT 10SM CLR 28/19 A2985 RMK AO2 SLP107 T02760186 $

TAF TAF KSSC
Valid from the 27 at 23:00 until the 29 at 05:00 UTC


272300Z 2723/2905 23012G18KT 9999 SCT060 OVC090 QNH2985INS
BECMG 2803/2804 22006KT 9999 BKN020 OVC030 QNH2987INS
BECMG 2808/2809 22006KT 9999 BKN005 OVC020 QNH2989INS
BECMG 2811/2812 31009KT 9999 SCT010 QNH2992INS
BECMG 2814/2815 32009KT 9999 SKC QNH2996INS TX32/2820Z TN21/2810Z LAST NO AMDS AFT 2723 NEXT 2807
KZJX FIR / North America



MET'MAP, your aeronautical weather chart ! - Copyright ORBIFLY December 2007 - Disclaimer

ORBIFLY MET'MAP TEAM :

Programming & Development : Alexandra Zaïnal
Original concept : Baudouin d'Aumeries
Technical & hardware support : Manuel Goepfert
Assistance : Marc-Olivier Méhu




SOURCES & CREDITS :

   NOAA       Earth
Advisory